createdAt,value
2018-01-25T00:01:33.144Z,2.00
2018-01-25T00:04:00.657Z,2.00
2018-01-25T00:06:28.201Z,2.00
2018-01-25T00:08:55.762Z,2.00
2018-01-25T00:11:23.341Z,2.10
2018-01-25T00:13:51.651Z,2.10
2018-01-25T00:16:19.290Z,2.00
2018-01-25T00:18:46.810Z,2.00
2018-01-25T00:21:14.341Z,2.00
2018-01-25T00:23:41.952Z,2.00
2018-01-25T00:26:09.449Z,2.10
2018-01-25T00:28:36.946Z,2.00
2018-01-25T00:31:04.455Z,2.10
2018-01-25T00:33:31.991Z,2.10
2018-01-25T00:35:59.831Z,2.20
2018-01-25T00:38:27.361Z,2.20
2018-01-25T00:40:55.642Z,2.20
2018-01-25T00:43:23.941Z,2.10
2018-01-25T00:45:51.456Z,2.10
2018-01-25T00:48:18.954Z,2.20
2018-01-25T00:50:46.521Z,2.20
2018-01-25T00:53:14.102Z,2.20
2018-01-25T00:55:42.174Z,2.10
2018-01-25T00:58:10.065Z,2.10
2018-01-25T01:00:37.908Z,2.10
2018-01-25T01:03:05.461Z,2.10
2018-01-25T01:05:32.941Z,2.00
2018-01-25T01:08:00.455Z,2.10
2018-01-25T01:10:28.705Z,2.10
2018-01-25T01:12:56.207Z,2.10
2018-01-25T01:15:23.729Z,2.10
2018-01-25T01:17:51.241Z,2.10
2018-01-25T01:20:18.747Z,2.10
2018-01-25T01:22:47.034Z,2.10
2018-01-25T01:25:15.420Z,2.00
2018-01-25T01:27:42.922Z,2.10
2018-01-25T01:30:10.431Z,2.10
2018-01-25T01:32:37.922Z,2.20
2018-01-25T01:35:05.432Z,2.20
2018-01-25T01:37:32.910Z,2.20
2018-01-25T01:40:00.409Z,2.20
2018-01-25T01:42:27.910Z,2.20
2018-01-25T01:44:56.181Z,2.20
2018-01-25T01:47:24.451Z,2.20
2018-01-25T01:49:52.737Z,2.20
2018-01-25T01:52:21.002Z,2.20
2018-01-25T01:54:48.512Z,2.20
2018-01-25T01:57:16.000Z,2.20
2018-01-25T01:59:43.610Z,2.20
2018-01-25T02:02:11.103Z,2.20
2018-01-25T02:04:38.573Z,2.20
2018-01-25T02:07:06.091Z,2.30
2018-01-25T02:09:33.632Z,2.30
2018-01-25T02:12:01.147Z,2.30
2018-01-25T02:14:29.409Z,2.50
2018-01-25T02:16:57.150Z,2.40
2018-01-25T02:19:24.626Z,2.40
2018-01-25T02:21:52.369Z,2.50
2018-01-25T02:24:19.864Z,2.40
2018-01-25T02:26:47.362Z,2.40
2018-01-25T02:29:14.926Z,2.40
2018-01-25T02:31:42.405Z,2.40
2018-01-25T02:34:09.920Z,2.40
2018-01-25T02:36:37.394Z,2.30
2018-01-25T02:39:04.907Z,2.30
2018-01-25T02:41:32.389Z,2.30
2018-01-25T02:43:59.937Z,2.30
2018-01-25T02:46:27.453Z,2.30
2018-01-25T02:48:55.072Z,2.30
2018-01-25T02:51:22.552Z,2.40
2018-01-25T02:53:50.846Z,2.40
2018-01-25T02:56:18.341Z,2.40
2018-01-25T02:58:46.206Z,2.50
2018-01-25T03:01:14.486Z,2.60
2018-01-25T03:03:42.377Z,2.60
2018-01-25T03:06:10.000Z,2.60
2018-01-25T03:08:37.497Z,2.70
2018-01-25T03:11:05.770Z,2.80
2018-01-25T03:13:34.034Z,2.80
2018-01-25T03:16:02.334Z,2.90
2018-01-25T03:18:29.826Z,2.90
2018-01-25T03:20:57.322Z,3.00
2018-01-25T03:23:24.933Z,3.00
2018-01-25T03:25:52.483Z,3.00
2018-01-25T03:28:19.974Z,3.10
2018-01-25T03:30:47.495Z,3.10
2018-01-25T03:33:14.990Z,3.10
2018-01-25T03:35:42.996Z,3.10
2018-01-25T03:38:11.274Z,3.10
2018-01-25T03:40:39.546Z,3.10
2018-01-25T03:43:07.078Z,3.10
2018-01-25T03:45:35.468Z,3.10
2018-01-25T03:48:03.015Z,3.10
2018-01-25T03:50:30.497Z,3.10
2018-01-25T03:52:58.781Z,3.20
2018-01-25T03:55:27.059Z,3.20
2018-01-25T03:57:55.342Z,3.10
2018-01-25T04:00:23.682Z,3.10
2018-01-25T04:02:51.380Z,3.10
2018-01-25T04:05:18.873Z,3.10
2018-01-25T04:07:46.388Z,3.10
2018-01-25T04:10:13.930Z,3.00
2018-01-25T04:12:41.442Z,3.00
2018-01-25T04:15:08.962Z,3.00
2018-01-25T04:17:36.664Z,3.00
2018-01-25T04:20:04.473Z,3.00
2018-01-25T04:22:31.962Z,3.00
2018-01-25T04:24:59.516Z,3.00
2018-01-25T04:27:27.012Z,2.90
2018-01-25T04:29:54.493Z,3.00
2018-01-25T04:32:22.216Z,3.00
2018-01-25T04:37:23.794Z,3.10
2018-01-25T04:39:51.329Z,3.10
2018-01-25T04:42:18.972Z,3.10
2018-01-25T04:44:47.384Z,3.10
2018-01-25T04:47:14.883Z,3.10
2018-01-25T04:49:42.369Z,3.10
2018-01-25T04:52:10.641Z,3.10
2018-01-25T04:54:38.914Z,3.10
2018-01-25T04:57:07.200Z,3.10
2018-01-25T04:59:35.515Z,3.10
2018-01-25T05:02:02.986Z,3.10
2018-01-25T05:04:30.514Z,3.10
2018-01-25T05:06:58.022Z,3.10
2018-01-25T05:09:25.605Z,3.10
2018-01-25T05:11:53.136Z,3.00
2018-01-25T05:14:20.622Z,3.00
2018-01-25T05:17:03.984Z,3.00
2018-01-25T05:19:31.487Z,2.90
2018-01-25T05:21:59.000Z,2.80
2018-01-25T05:24:26.480Z,2.80
2018-01-25T05:26:53.981Z,2.70
2018-01-25T05:29:21.519Z,2.70
2018-01-25T05:31:49.780Z,2.50
2018-01-25T05:34:17.611Z,2.50
2018-01-25T05:36:45.094Z,2.40
2018-01-25T05:39:12.702Z,2.40
2018-01-25T05:41:40.192Z,2.30
2018-01-25T05:44:07.699Z,2.30
2018-01-25T05:46:36.348Z,2.30
2018-01-25T05:49:03.874Z,2.30
2018-01-25T05:51:31.406Z,2.30
2018-01-25T05:53:58.896Z,2.30
2018-01-25T05:56:26.458Z,2.30
2018-01-25T05:58:53.976Z,2.30
2018-01-25T06:01:21.484Z,2.30
2018-01-25T06:03:49.411Z,2.30
2018-01-25T06:06:17.676Z,2.40
2018-01-25T06:08:45.179Z,2.40
2018-01-25T06:11:12.692Z,2.40
2018-01-25T06:13:40.198Z,2.40
2018-01-25T06:16:07.934Z,2.50
2018-01-25T06:18:36.240Z,2.40
2018-01-25T06:21:03.758Z,2.40
2018-01-25T06:23:32.090Z,2.40
2018-01-25T06:25:59.705Z,2.40
2018-01-25T06:28:27.728Z,2.40
2018-01-25T06:30:55.507Z,2.30
2018-01-25T06:33:23.217Z,2.30
2018-01-25T06:35:51.466Z,2.20
2018-01-25T06:38:19.765Z,2.10
2018-01-25T06:40:47.301Z,2.20
2018-01-25T06:43:15.926Z,2.20
2018-01-25T06:45:43.461Z,2.20
2018-01-25T06:48:10.965Z,2.20
2018-01-25T06:50:38.468Z,2.30
2018-01-25T06:53:06.002Z,2.30
2018-01-25T06:55:33.493Z,2.30
2018-01-25T06:58:01.179Z,2.40
2018-01-25T07:00:28.710Z,2.40
2018-01-25T07:02:56.222Z,2.40
2018-01-25T07:05:23.721Z,2.40
2018-01-25T07:07:51.979Z,2.40
2018-01-25T07:10:20.246Z,2.50
2018-01-25T07:12:47.794Z,2.50
2018-01-25T07:15:15.324Z,2.60
2018-01-25T07:17:42.845Z,2.60
2018-01-25T07:20:11.109Z,2.70
2018-01-25T07:22:39.451Z,2.70
2018-01-25T07:25:06.955Z,2.70
2018-01-25T07:27:34.446Z,2.80
2018-01-25T07:30:01.981Z,2.90
2018-01-25T07:32:29.794Z,2.90
2018-01-25T07:35:01.792Z,3.10
2018-01-25T07:37:31.471Z,3.20
2018-01-25T07:39:58.983Z,3.20
2018-01-25T07:42:26.524Z,3.30
2018-01-25T07:44:54.054Z,3.40
2018-01-25T07:47:21.648Z,3.50
2018-01-25T07:49:49.220Z,3.60
2018-01-25T07:52:16.711Z,3.60
2018-01-25T07:54:44.238Z,3.70
2018-01-25T07:57:17.262Z,3.80
2018-01-25T07:59:44.830Z,3.90
2018-01-25T08:02:12.404Z,4.00
2018-01-25T08:04:40.011Z,4.10
2018-01-25T08:07:07.702Z,4.20
2018-01-25T08:09:35.371Z,4.40
2018-01-25T08:12:02.921Z,4.60
2018-01-25T08:14:30.402Z,5.00
2018-01-25T08:16:57.899Z,5.30
2018-01-25T08:19:26.303Z,6.10
2018-01-25T08:21:54.169Z,6.10
2018-01-25T08:24:22.535Z,7.30
2018-01-25T08:26:50.063Z,7.20
2018-01-25T08:29:18.017Z,7.90
2018-01-25T08:31:45.523Z,8.60
2018-01-25T08:34:13.015Z,9.00
2018-01-25T08:36:40.643Z,9.60
2018-01-25T08:39:08.144Z,10.30
2018-01-25T08:41:35.647Z,11.20
2018-01-25T08:44:03.947Z,11.60
2018-01-25T08:46:32.321Z,11.40
2018-01-25T08:49:00.674Z,11.60
2018-01-25T08:51:28.158Z,11.70
2018-01-25T08:53:55.658Z,12.10
2018-01-25T08:56:23.164Z,12.30
2018-01-25T08:58:51.800Z,13.30
2018-01-25T09:01:19.308Z,13.30
2018-01-25T09:03:47.022Z,13.70
2018-01-25T09:06:14.526Z,14.00
2018-01-25T09:08:42.795Z,14.70
2018-01-25T09:11:11.053Z,15.00
2018-01-25T09:13:38.601Z,15.00
2018-01-25T09:16:06.094Z,15.00
2018-01-25T09:18:33.609Z,15.00
2018-01-25T09:21:01.099Z,14.00
2018-01-25T09:23:28.694Z,13.40
2018-01-25T09:25:56.232Z,12.90
2018-01-25T09:28:24.499Z,13.00
2018-01-25T09:30:53.062Z,14.00
2018-01-25T09:33:20.779Z,13.90
2018-01-25T09:35:48.293Z,14.70
2018-01-25T09:38:15.816Z,15.20
2018-01-25T09:40:43.322Z,15.90
2018-01-25T09:43:11.598Z,17.00
2018-01-25T09:45:39.886Z,18.00
2018-01-25T09:48:07.405Z,18.00
2018-01-25T09:50:35.698Z,19.40
2018-01-25T09:53:03.208Z,19.40
2018-01-25T09:55:30.828Z,19.10
2018-01-25T09:57:58.528Z,18.50
2018-01-25T10:00:26.182Z,18.60
2018-01-25T10:02:53.697Z,18.90
2018-01-25T10:05:21.373Z,19.00
2018-01-25T10:07:49.065Z,18.50
2018-01-25T10:10:16.628Z,18.90
2018-01-25T10:12:44.121Z,19.60
2018-01-25T10:15:13.116Z,19.70
2018-01-25T10:17:40.634Z,19.70
2018-01-25T10:20:08.120Z,20.10
2018-01-25T10:22:35.812Z,19.80
2018-01-25T10:25:03.440Z,19.40
2018-01-25T10:27:30.943Z,19.80
2018-01-25T10:29:58.519Z,19.60
2018-01-25T10:32:26.119Z,19.90
2018-01-25T10:34:53.681Z,20.20
2018-01-25T10:37:21.581Z,20.50
2018-01-25T10:39:49.875Z,21.10
2018-01-25T10:42:17.421Z,21.10
2018-01-25T10:44:45.738Z,20.00
2018-01-25T10:47:13.370Z,20.00
2018-01-25T10:49:40.899Z,19.70
2018-01-25T10:52:08.410Z,19.40
2018-01-25T10:54:35.956Z,18.80
2018-01-25T10:57:03.479Z,18.70
2018-01-25T10:59:31.043Z,19.30
2018-01-25T11:02:05.702Z,19.80
2018-01-25T11:04:33.265Z,19.70
2018-01-25T11:07:00.793Z,19.60
2018-01-25T11:09:29.182Z,20.10
2018-01-25T11:11:56.840Z,20.10
2018-01-25T11:14:25.094Z,19.00
2018-01-25T11:16:52.632Z,18.90
2018-01-25T11:19:20.130Z,18.80
2018-01-25T11:21:48.399Z,19.10
2018-01-25T11:24:16.682Z,19.00
2018-01-25T11:26:44.955Z,18.90
2018-01-25T11:29:12.448Z,18.90
2018-01-25T11:31:40.000Z,18.90
2018-01-25T11:34:07.665Z,18.50
2018-01-25T11:36:36.043Z,18.40
2018-01-25T11:39:03.560Z,17.50
2018-01-25T11:41:31.846Z,17.10
2018-01-25T11:44:00.116Z,17.00
2018-01-25T11:46:27.620Z,16.90
2018-01-25T11:48:55.119Z,16.70
2018-01-25T11:51:22.607Z,16.40
2018-01-25T11:53:50.159Z,16.40
2018-01-25T11:56:17.640Z,16.20
2018-01-25T11:58:45.178Z,16.00
2018-01-25T12:01:12.669Z,15.70
2018-01-25T12:03:40.215Z,15.50
2018-01-25T12:06:07.713Z,15.10
2018-01-25T12:08:35.215Z,15.10
2018-01-25T12:11:02.706Z,15.00
2018-01-25T12:13:30.559Z,15.00
2018-01-25T12:15:58.055Z,15.00
2018-01-25T12:18:25.671Z,15.00
2018-01-25T12:20:53.178Z,15.00
2018-01-25T12:23:20.772Z,15.20
2018-01-25T12:25:48.270Z,15.10
2018-01-25T12:28:15.774Z,15.20
2018-01-25T12:30:43.673Z,15.20
2018-01-25T12:33:11.330Z,15.30
2018-01-25T12:35:38.982Z,15.30
2018-01-25T12:38:06.630Z,15.20
2018-01-25T12:40:34.169Z,15.10
2018-01-25T12:43:01.674Z,15.10
2018-01-25T12:45:29.217Z,14.90
2018-01-25T12:47:56.787Z,14.80
2018-01-25T12:50:24.472Z,14.60
2018-01-25T12:52:52.121Z,14.50
2018-01-25T12:55:19.913Z,14.60
2018-01-25T12:57:47.422Z,14.70
2018-01-25T13:00:14.893Z,14.80
2018-01-25T13:02:42.409Z,14.70
2018-01-25T13:05:10.116Z,14.60
2018-01-25T13:07:37.779Z,14.70
2018-01-25T13:10:05.496Z,14.60
2018-01-25T13:12:33.002Z,14.40
2018-01-25T13:15:00.500Z,14.40
2018-01-25T13:17:28.054Z,14.40
2018-01-25T13:19:55.550Z,14.30
2018-01-25T13:22:23.051Z,14.30
2018-01-25T13:24:50.565Z,14.40
2018-01-25T13:27:18.830Z,14.30
2018-01-25T13:29:47.210Z,14.40
2018-01-25T13:32:19.515Z,14.40
2018-01-25T13:34:47.025Z,14.30
2018-01-25T13:37:14.533Z,14.40
2018-01-25T13:39:42.047Z,14.40
2018-01-25T13:42:10.339Z,14.10
2018-01-25T13:44:39.758Z,14.00
2018-01-25T13:47:07.243Z,14.00
2018-01-25T13:49:34.781Z,14.00
2018-01-25T13:52:02.302Z,13.80
2018-01-25T13:54:29.875Z,13.70
2018-01-25T13:56:57.398Z,13.70
2018-01-25T13:59:24.930Z,13.70
2018-01-25T14:01:52.473Z,13.70
2018-01-25T14:04:19.962Z,13.70
2018-01-25T14:06:47.488Z,13.70
2018-01-25T14:09:15.000Z,13.60
2018-01-25T14:11:42.522Z,13.50
2018-01-25T14:14:10.033Z,13.40
2018-01-25T14:16:38.356Z,13.20
2018-01-25T14:19:05.858Z,13.20
2018-01-25T14:21:33.375Z,13.20
2018-01-25T14:24:00.858Z,13.10
2018-01-25T14:26:28.398Z,13.00
2018-01-25T14:28:55.968Z,12.90
2018-01-25T14:31:23.465Z,12.80
2018-01-25T14:33:51.036Z,12.70
2018-01-25T14:36:18.486Z,12.60
2018-01-25T14:38:46.298Z,12.40
2018-01-25T14:41:13.804Z,12.30
2018-01-25T14:43:41.337Z,12.20
2018-01-25T14:46:09.049Z,12.20
2018-01-25T14:48:36.540Z,12.10
2018-01-25T14:51:04.030Z,12.00
2018-01-25T14:53:32.325Z,11.70
2018-01-25T14:55:59.838Z,11.60
2018-01-25T14:58:27.335Z,11.50
2018-01-25T15:00:55.638Z,11.30
2018-01-25T15:03:23.147Z,11.30
2018-01-25T15:05:50.682Z,11.20
2018-01-25T15:08:18.207Z,11.10
2018-01-25T15:10:46.060Z,11.00
2018-01-25T15:13:14.042Z,11.00
2018-01-25T15:15:41.793Z,10.90
2018-01-25T15:18:09.530Z,10.80
2018-01-25T15:20:37.315Z,10.80
2018-01-25T15:23:04.834Z,10.70
2018-01-25T15:25:38.283Z,10.60
2018-01-25T15:28:05.795Z,10.50
2018-01-25T15:30:33.305Z,10.50
2018-01-25T15:33:01.560Z,10.40
2018-01-25T15:35:29.655Z,10.30
2018-01-25T15:37:57.393Z,10.20
2018-01-25T15:40:25.333Z,10.20
2018-01-25T15:42:52.930Z,10.10
2018-01-25T15:45:20.611Z,10.00
2018-01-25T15:47:48.122Z,9.90
2018-01-25T15:50:16.428Z,9.80
2018-01-25T15:52:43.982Z,9.70
2018-01-25T15:55:11.728Z,9.70
2018-01-25T15:57:39.266Z,9.60
2018-01-25T16:00:06.794Z,9.50
2018-01-25T16:02:34.514Z,9.40
2018-01-25T16:05:02.017Z,9.30
2018-01-25T16:07:29.958Z,9.20
2018-01-25T16:09:58.196Z,9.10
2018-01-25T16:12:25.706Z,9.00
2018-01-25T16:14:53.454Z,8.90
2018-01-25T16:17:21.235Z,8.80
2018-01-25T16:19:48.847Z,8.70
2018-01-25T16:22:16.721Z,8.60
2018-01-25T16:24:44.739Z,8.50
2018-01-25T16:27:12.255Z,8.40
2018-01-25T16:29:40.057Z,8.40
2018-01-25T16:32:07.682Z,8.30
2018-01-25T16:34:35.243Z,8.20
2018-01-25T16:37:02.793Z,8.10
2018-01-25T16:39:31.086Z,8.00
2018-01-25T16:41:59.695Z,8.00
2018-01-25T16:44:27.466Z,8.00
2018-01-25T16:46:54.973Z,7.90
2018-01-25T16:49:22.544Z,7.90
2018-01-25T16:51:50.837Z,7.80
2018-01-25T16:54:18.561Z,7.80
2018-01-25T16:56:46.111Z,7.80
2018-01-25T16:59:14.200Z,7.80
2018-01-25T17:01:42.516Z,7.70
2018-01-25T17:04:10.053Z,7.70
2018-01-25T17:06:37.584Z,7.60
2018-01-25T17:09:05.159Z,7.60
2018-01-25T17:11:36.323Z,7.50
2018-01-25T17:14:03.890Z,7.50
2018-01-25T17:16:31.652Z,7.50
2018-01-25T17:18:59.226Z,7.50
2018-01-25T17:21:26.886Z,7.50
2018-01-25T17:23:54.388Z,7.50
2018-01-25T17:26:22.924Z,7.40
2018-01-25T17:28:50.432Z,7.40
2018-01-25T17:31:18.215Z,7.30
2018-01-25T17:33:46.949Z,7.20
2018-01-25T17:36:14.664Z,7.10
2018-01-25T17:38:42.482Z,7.10
2018-01-25T17:41:10.071Z,7.10
2018-01-25T17:43:37.627Z,7.00
2018-01-25T17:46:05.140Z,6.90
2018-01-25T17:48:32.682Z,6.90
2018-01-25T17:51:00.252Z,6.80
2018-01-25T17:53:27.767Z,6.80
2018-01-25T17:55:55.378Z,6.60
2018-01-25T17:58:22.904Z,6.50
2018-01-25T18:00:50.498Z,6.40
2018-01-25T18:03:18.115Z,6.40
2018-01-25T18:05:45.943Z,6.30
2018-01-25T18:08:13.493Z,6.30
2018-01-25T18:10:41.013Z,6.30
2018-01-25T18:13:08.729Z,6.30
2018-01-25T18:15:36.259Z,6.30
2018-01-25T18:18:03.747Z,6.30
2018-01-25T18:20:31.280Z,6.20
2018-01-25T18:22:59.555Z,6.20
2018-01-25T18:25:28.594Z,6.10
2018-01-25T18:27:56.082Z,6.10
2018-01-25T18:30:23.616Z,6.00
2018-01-25T18:32:51.889Z,5.90
2018-01-25T18:35:19.438Z,5.90
2018-01-25T18:37:46.930Z,5.90
2018-01-25T18:40:15.252Z,5.90
2018-01-25T18:42:42.739Z,5.90
2018-01-25T18:45:11.038Z,5.90
2018-01-25T18:47:38.806Z,5.90
2018-01-25T18:50:06.319Z,5.90
2018-01-25T18:52:34.023Z,5.80
2018-01-25T18:55:01.836Z,5.80
2018-01-25T18:57:29.380Z,5.70
2018-01-25T18:59:56.871Z,5.70
2018-01-25T19:02:24.413Z,5.70
2018-01-25T19:04:51.907Z,5.70
2018-01-25T19:07:20.213Z,5.60
2018-01-25T19:09:47.707Z,5.60
2018-01-25T19:12:15.230Z,5.60
2018-01-25T19:14:43.470Z,5.70
2018-01-25T19:17:10.999Z,5.70
2018-01-25T19:19:38.513Z,5.70
2018-01-25T19:22:06.072Z,5.70
2018-01-25T19:24:33.570Z,5.70
2018-01-25T19:27:01.089Z,5.60
2018-01-25T19:29:28.673Z,5.60
2018-01-25T19:31:56.197Z,5.60
2018-01-25T19:34:24.500Z,5.50
2018-01-25T19:36:52.038Z,5.50
2018-01-25T19:39:19.568Z,5.50
2018-01-25T19:41:47.890Z,5.50
2018-01-25T19:44:15.493Z,5.50
2018-01-25T19:46:43.114Z,5.50
2018-01-25T19:49:10.648Z,5.40
2018-01-25T19:51:38.176Z,5.40
2018-01-25T19:54:05.699Z,5.40
2018-01-25T19:56:33.256Z,5.30
2018-01-25T19:59:00.816Z,5.30
2018-01-25T20:01:28.354Z,5.30
2018-01-25T20:03:55.930Z,5.30
2018-01-25T20:06:23.497Z,5.20
2018-01-25T20:08:51.058Z,5.20
2018-01-25T20:11:18.735Z,5.20
2018-01-25T20:13:46.331Z,5.10
2018-01-25T20:16:14.663Z,5.10
2018-01-25T20:18:43.756Z,5.10
2018-01-25T20:21:11.304Z,5.10
2018-01-25T20:23:38.860Z,5.00
2018-01-25T20:26:06.392Z,5.00
2018-01-25T20:28:33.901Z,5.00
2018-01-25T20:31:01.450Z,4.90
2018-01-25T20:33:28.942Z,4.90
2018-01-25T20:35:56.480Z,4.90
2018-01-25T20:38:24.026Z,4.80
2018-01-25T20:40:51.565Z,4.80
2018-01-25T20:43:19.088Z,4.80
2018-01-25T20:45:46.627Z,4.80
2018-01-25T20:48:14.231Z,4.80
2018-01-25T20:50:41.822Z,4.80
2018-01-25T20:53:09.335Z,4.80
2018-01-25T20:55:36.850Z,4.80
2018-01-25T20:58:04.377Z,4.70
2018-01-25T21:00:31.901Z,4.70
2018-01-25T21:02:59.438Z,4.70
2018-01-25T21:05:26.926Z,4.70
2018-01-25T21:07:55.336Z,4.60
2018-01-25T21:10:22.830Z,4.60
2018-01-25T21:12:51.330Z,4.60
2018-01-25T21:15:18.819Z,4.60
2018-01-25T21:17:46.397Z,4.60
2018-01-25T21:20:13.892Z,4.60
2018-01-25T21:22:41.415Z,4.60
2018-01-25T21:25:09.049Z,4.60
2018-01-25T21:27:36.541Z,4.50
2018-01-25T21:30:04.060Z,4.50
2018-01-25T21:32:31.565Z,4.50
2018-01-25T21:34:59.094Z,4.50
2018-01-25T21:37:27.717Z,4.50
2018-01-25T21:39:55.226Z,4.50
2018-01-25T21:42:22.781Z,4.60
2018-01-25T21:44:50.322Z,4.50
2018-01-25T21:47:17.830Z,4.50
2018-01-25T21:49:45.362Z,4.50
2018-01-25T21:52:13.138Z,4.50
2018-01-25T21:54:40.624Z,4.40
2018-01-25T21:57:08.145Z,4.40
2018-01-25T21:59:35.659Z,4.40
2018-01-25T22:02:03.169Z,4.30
2018-01-25T22:04:30.672Z,4.30
2018-01-25T22:06:58.952Z,4.30
2018-01-25T22:09:26.443Z,4.30
2018-01-25T22:11:53.968Z,4.30
2018-01-25T22:14:21.456Z,4.30
2018-01-25T22:16:48.973Z,4.30
2018-01-25T22:19:16.519Z,4.30
2018-01-25T22:21:44.048Z,4.30
2018-01-25T22:24:11.570Z,4.30
2018-01-25T22:26:39.272Z,4.30
2018-01-25T22:29:07.079Z,4.30
2018-01-25T22:31:34.978Z,4.30
2018-01-25T22:34:02.467Z,4.30
2018-01-25T22:36:29.982Z,4.30
2018-01-25T22:38:58.273Z,4.20
2018-01-25T22:41:25.777Z,4.20
2018-01-25T22:43:53.298Z,4.20
2018-01-25T22:46:20.828Z,4.30
2018-01-25T22:48:48.309Z,4.20
2018-01-25T22:51:15.860Z,4.20
2018-01-25T22:53:43.362Z,4.20
2018-01-25T22:56:10.869Z,4.20
2018-01-25T22:58:39.165Z,4.20
2018-01-25T23:01:06.675Z,4.20
2018-01-25T23:03:34.192Z,4.20
2018-01-25T23:06:01.666Z,4.10
2018-01-25T23:08:29.197Z,4.10
2018-01-25T23:10:56.710Z,4.10
2018-01-25T23:13:24.223Z,4.10
2018-01-25T23:15:51.739Z,4.10
2018-01-25T23:18:19.266Z,4.00
2018-01-25T23:20:46.808Z,4.10
2018-01-25T23:23:14.307Z,4.10
2018-01-25T23:25:41.821Z,4.10
2018-01-25T23:28:09.457Z,4.10
2018-01-25T23:30:37.011Z,4.10
2018-01-25T23:33:05.261Z,4.10
2018-01-25T23:35:33.692Z,4.00
2018-01-25T23:38:01.188Z,4.10
2018-01-25T23:40:28.784Z,4.10
2018-01-25T23:42:56.254Z,4.10
2018-01-25T23:45:23.905Z,4.10
2018-01-25T23:47:51.430Z,4.10
2018-01-25T23:50:18.936Z,4.10
2018-01-25T23:52:46.457Z,4.00
2018-01-25T23:55:13.979Z,4.00
2018-01-25T23:57:41.472Z,4.00
